createdAt,value
2018-07-02T00:02:20.817Z,15.90
2018-07-02T00:07:22.413Z,15.70
2018-07-02T00:09:50.727Z,15.80
2018-07-02T00:12:19.504Z,15.60
2018-07-02T00:14:48.407Z,15.10
2018-07-02T00:17:16.564Z,15.40
2018-07-02T00:19:44.412Z,15.30
2018-07-02T00:22:12.791Z,15.30
2018-07-02T00:27:08.630Z,14.70
2018-07-02T00:29:36.482Z,14.10
2018-07-02T00:32:04.287Z,14.10
2018-07-02T00:34:32.065Z,14.10
2018-07-02T00:36:59.814Z,13.60
2018-07-02T00:39:27.680Z,13.40
2018-07-02T00:41:55.455Z,13.40
2018-07-02T00:44:23.345Z,14.00
2018-07-02T00:46:51.091Z,14.20
2018-07-02T00:49:18.935Z,14.50
2018-07-02T00:51:46.827Z,14.50
2018-07-02T00:54:14.573Z,14.60
2018-07-02T00:56:42.417Z,14.60
2018-07-02T01:01:38.062Z,14.50
2018-07-02T01:04:06.047Z,14.30
2018-07-02T01:06:33.834Z,14.40
2018-07-02T01:09:01.661Z,14.40
2018-07-02T01:11:29.602Z,14.40
2018-07-02T01:13:57.467Z,14.60
2018-07-02T01:16:25.317Z,14.60
2018-07-02T01:18:53.242Z,14.50
2018-07-02T01:21:21.047Z,14.30
2018-07-02T01:23:48.828Z,14.30
2018-07-02T01:26:17.247Z,14.10
2018-07-02T01:28:45.489Z,13.90
2018-07-02T01:31:13.689Z,13.80
2018-07-02T01:33:41.457Z,14.10
2018-07-02T01:36:09.428Z,14.00
2018-07-02T01:38:37.246Z,13.90
2018-07-02T01:41:05.106Z,13.80
2018-07-02T01:43:33.414Z,13.50
2018-07-02T01:46:01.511Z,13.60
2018-07-02T01:48:29.265Z,13.60
2018-07-02T01:50:57.092Z,13.10
2018-07-02T01:53:25.159Z,13.00
2018-07-02T01:55:53.150Z,12.50
2018-07-02T01:58:21.044Z,12.20
2018-07-02T02:00:48.833Z,12.20
2018-07-02T02:03:16.655Z,12.40
2018-07-02T02:08:12.149Z,12.00
2018-07-02T02:10:39.946Z,11.80
2018-07-02T02:15:35.516Z,12.40
2018-07-02T02:18:03.310Z,12.40
2018-07-02T02:20:31.097Z,12.60
2018-07-02T02:25:26.596Z,12.90
2018-07-02T02:27:54.370Z,12.20
2018-07-02T02:30:22.149Z,12.00
2018-07-02T02:32:50.019Z,12.10
2018-07-02T02:37:45.577Z,12.60
2018-07-02T02:40:13.390Z,12.80
2018-07-02T02:42:41.171Z,13.00
2018-07-02T02:47:36.666Z,13.30
2018-07-02T02:50:04.479Z,13.50
2018-07-02T02:54:59.967Z,13.60
2018-07-02T02:57:27.773Z,13.70
2018-07-02T02:59:55.582Z,13.60
2018-07-02T03:02:23.441Z,13.70
2018-07-02T03:04:51.343Z,13.70
2018-07-02T03:07:19.152Z,13.90
2018-07-02T03:09:46.973Z,13.70
2018-07-02T03:12:14.760Z,13.60
2018-07-02T03:14:42.621Z,13.50
2018-07-02T03:22:06.673Z,12.50
2018-07-02T03:24:34.471Z,12.90
2018-07-02T03:27:02.265Z,13.30
2018-07-02T03:29:30.214Z,13.70
2018-07-02T03:31:58.274Z,13.90
2018-07-02T03:34:26.347Z,13.70
2018-07-02T03:36:54.154Z,13.40
2018-07-02T03:39:21.928Z,13.20
2018-07-02T03:41:49.842Z,12.90
2018-07-02T03:44:17.591Z,12.80
2018-07-02T03:46:45.533Z,13.00
2018-07-02T03:49:13.270Z,13.10
2018-07-02T03:51:41.066Z,13.00
2018-07-02T03:54:08.817Z,12.90
2018-07-02T03:56:36.595Z,12.80
2018-07-02T03:59:04.373Z,13.00
2018-07-02T04:01:32.275Z,13.00
2018-07-02T04:04:00.096Z,12.60
2018-07-02T04:06:28.005Z,12.20
2018-07-02T04:08:55.788Z,12.70
2018-07-02T04:13:51.263Z,12.20
2018-07-02T04:16:19.127Z,12.20
2018-07-02T04:18:46.989Z,12.50
2018-07-02T04:21:14.758Z,12.50
2018-07-02T04:23:42.570Z,12.30
2018-07-02T04:26:10.343Z,12.60
2018-07-02T04:31:05.814Z,12.80
2018-07-02T04:33:33.622Z,13.10
2018-07-02T04:40:56.971Z,13.00
2018-07-02T04:43:24.826Z,13.20
2018-07-02T04:45:52.606Z,13.20
2018-07-02T04:48:20.489Z,13.30
2018-07-02T04:50:48.561Z,13.40
2018-07-02T04:53:16.410Z,13.40
2018-07-02T04:55:44.272Z,13.40
2018-07-02T04:58:12.213Z,13.50
2018-07-02T05:00:42.126Z,13.50
2018-07-02T05:03:09.913Z,13.40
2018-07-02T05:05:37.707Z,13.50
2018-07-02T05:08:05.514Z,13.80
2018-07-02T05:10:33.293Z,14.00
2018-07-02T05:13:01.073Z,14.40
2018-07-02T05:15:28.785Z,14.50
2018-07-02T05:17:56.603Z,14.60
2018-07-02T05:20:24.373Z,14.70
2018-07-02T05:22:52.372Z,14.80
2018-07-02T05:25:20.043Z,14.90
2018-07-02T05:27:47.865Z,15.00
2018-07-02T05:30:15.627Z,15.10
2018-07-02T05:32:43.593Z,15.20
2018-07-02T05:35:11.365Z,15.60
2018-07-02T05:37:39.137Z,15.80
2018-07-02T05:40:07.035Z,16.10
2018-07-02T05:42:34.799Z,15.80
2018-07-02T05:45:02.560Z,16.10
2018-07-02T05:47:30.422Z,16.20
2018-07-02T05:49:58.300Z,16.60
2018-07-02T05:52:26.113Z,16.80
2018-07-02T05:54:53.989Z,16.80
2018-07-02T05:57:21.798Z,16.80
2018-07-02T06:02:17.292Z,16.50
2018-07-02T06:04:45.223Z,16.50
2018-07-02T06:07:12.960Z,16.80
2018-07-02T06:09:40.771Z,17.00
2018-07-02T06:12:08.534Z,16.60
2018-07-02T06:14:37.624Z,16.40
2018-07-02T06:17:05.352Z,16.50
2018-07-02T06:19:33.138Z,16.70
2018-07-02T06:22:00.935Z,16.70
2018-07-02T06:24:28.765Z,16.60
2018-07-02T06:26:56.547Z,16.70
2018-07-02T06:31:52.010Z,17.20
2018-07-02T06:34:19.850Z,17.50
2018-07-02T06:36:47.618Z,17.60
2018-07-02T06:39:15.411Z,17.50
2018-07-02T06:41:43.186Z,17.50
2018-07-02T06:51:34.292Z,17.50
2018-07-02T06:54:02.046Z,17.40
2018-07-02T06:56:29.849Z,17.50
2018-07-02T07:01:25.377Z,17.80
2018-07-02T07:03:53.137Z,17.90
2018-07-02T07:06:20.953Z,17.80
2018-07-02T07:08:48.756Z,18.30
2018-07-02T07:11:16.766Z,18.50
2018-07-02T07:13:44.570Z,18.60
2018-07-02T07:16:12.314Z,18.30
2018-07-02T07:18:40.166Z,18.50
2018-07-02T07:21:08.022Z,18.50
2018-07-02T07:28:32.228Z,18.40
2018-07-02T07:33:27.838Z,18.30
2018-07-02T07:35:56.156Z,18.30
2018-07-02T07:38:23.940Z,18.60
2018-07-02T07:40:52.142Z,18.70
2018-07-02T07:43:20.089Z,18.40
2018-07-02T07:45:47.822Z,18.40
2018-07-02T07:48:15.641Z,18.80
2018-07-02T07:50:43.853Z,18.80
2018-07-02T07:55:40.824Z,18.90
2018-07-02T08:00:36.261Z,18.90
2018-07-02T08:03:04.021Z,18.70
2018-07-02T08:05:31.803Z,19.00
2018-07-02T08:07:59.567Z,18.90
2018-07-02T08:10:27.470Z,19.10
2018-07-02T08:12:55.274Z,19.20
2018-07-02T08:17:50.786Z,18.90
2018-07-02T08:22:46.293Z,19.20
2018-07-02T08:25:14.085Z,19.20
2018-07-02T08:30:09.696Z,19.30
2018-07-02T08:32:37.422Z,19.40
2018-07-02T08:35:05.239Z,19.50
2018-07-02T08:40:00.762Z,19.50
2018-07-02T08:44:56.189Z,19.50
2018-07-02T08:52:19.387Z,19.50
2018-07-02T08:59:42.703Z,20.00
2018-07-02T09:02:10.535Z,19.90
2018-07-02T09:09:33.949Z,19.70
2018-07-02T09:12:01.742Z,19.90
2018-07-02T09:14:29.544Z,19.90
2018-07-02T09:16:57.274Z,19.90
2018-07-02T09:19:25.114Z,19.90
2018-07-02T09:21:53.278Z,20.00
2018-07-02T09:24:21.065Z,20.20
2018-07-02T09:26:48.785Z,20.20
2018-07-02T09:31:44.307Z,20.10
2018-07-02T09:34:12.012Z,20.30
2018-07-02T09:36:40.343Z,20.10
2018-07-02T09:41:38.621Z,20.30
2018-07-02T09:44:06.453Z,20.50
2018-07-02T09:46:34.285Z,20.50
2018-07-02T09:51:29.907Z,20.40
2018-07-02T09:53:58.374Z,20.60
2018-07-02T09:56:26.172Z,20.60
2018-07-02T09:58:53.907Z,20.60
2018-07-02T10:03:49.379Z,20.90
2018-07-02T10:06:17.720Z,20.80
2018-07-02T10:08:45.423Z,20.80
2018-07-02T10:11:13.213Z,20.90
2018-07-02T10:13:40.945Z,21.00
2018-07-02T10:16:08.692Z,21.20
2018-07-02T10:18:36.471Z,21.20
2018-07-02T10:21:04.275Z,21.30
2018-07-02T10:23:37.332Z,21.40
2018-07-02T10:28:27.756Z,21.80
2018-07-02T10:30:55.738Z,21.50
2018-07-02T10:33:23.358Z,21.40
2018-07-02T10:35:51.158Z,21.50
2018-07-02T10:38:18.893Z,21.20
2018-07-02T10:40:46.654Z,21.30
2018-07-02T10:43:14.362Z,21.20
2018-07-02T10:45:42.147Z,21.10
2018-07-02T10:48:09.941Z,21.10
2018-07-02T10:50:37.716Z,21.30
2018-07-02T10:53:05.475Z,21.50
2018-07-02T10:55:33.300Z,21.50
2018-07-02T10:58:01.056Z,21.80
2018-07-02T11:00:28.852Z,22.00
2018-07-02T11:02:56.675Z,22.00
2018-07-02T11:07:52.210Z,21.70
2018-07-02T11:10:19.966Z,21.70
2018-07-02T11:12:47.726Z,21.70
2018-07-02T11:15:15.495Z,21.70
2018-07-02T11:20:11.121Z,21.90
2018-07-02T11:22:39.193Z,21.90
2018-07-02T11:25:06.983Z,22.10
2018-07-02T11:27:34.781Z,21.90
2018-07-02T11:30:02.783Z,22.30
2018-07-02T11:32:30.645Z,22.10
2018-07-02T11:34:58.387Z,22.00
2018-07-02T11:37:26.186Z,22.10
2018-07-02T11:39:53.906Z,22.30
2018-07-02T11:42:21.687Z,22.60
2018-07-02T11:44:49.436Z,22.60
2018-07-02T11:47:17.248Z,22.40
2018-07-02T11:49:45.029Z,22.30
2018-07-02T11:52:12.826Z,22.20
2018-07-02T11:54:40.601Z,22.40
2018-07-02T11:57:08.384Z,22.50
2018-07-02T11:59:36.161Z,22.50
2018-07-02T12:02:04.036Z,22.50
2018-07-02T12:04:31.905Z,22.50
2018-07-02T12:06:59.701Z,22.50
2018-07-02T12:09:27.463Z,22.60
2018-07-02T12:11:55.197Z,22.90
2018-07-02T12:16:50.719Z,22.60
2018-07-02T12:19:18.531Z,22.50
2018-07-02T12:21:46.345Z,22.60
2018-07-02T12:24:14.062Z,22.50
2018-07-02T12:26:41.887Z,22.60
2018-07-02T12:29:09.632Z,22.90
2018-07-02T12:34:05.219Z,22.90
2018-07-02T12:36:33.036Z,22.90
2018-07-02T12:39:00.835Z,22.90
2018-07-02T12:41:28.562Z,22.60
2018-07-02T12:43:56.341Z,22.50
2018-07-02T12:46:24.098Z,22.70
2018-07-02T12:48:51.940Z,22.90
2018-07-02T12:51:19.710Z,23.20
2018-07-02T12:53:47.491Z,23.30
2018-07-02T12:58:43.060Z,22.80
2018-07-02T13:01:10.808Z,22.70
2018-07-02T13:03:38.605Z,22.80
2018-07-02T13:06:06.382Z,23.00
2018-07-02T13:13:29.801Z,23.10
2018-07-02T13:15:57.566Z,23.00
2018-07-02T13:20:53.047Z,23.20
2018-07-02T13:23:20.834Z,23.50
2018-07-02T13:25:48.612Z,23.60
2018-07-02T13:28:16.514Z,23.40
2018-07-02T13:30:44.273Z,23.30
2018-07-02T13:33:12.047Z,23.60
2018-07-02T13:35:39.821Z,23.60
2018-07-02T13:38:07.616Z,23.50
2018-07-02T13:40:38.036Z,23.50
2018-07-02T13:43:06.065Z,23.30
2018-07-02T13:45:33.808Z,23.50
2018-07-02T13:48:01.623Z,23.60
2018-07-02T13:50:29.370Z,23.60
2018-07-02T13:52:57.172Z,23.50
2018-07-02T13:55:24.975Z,23.70
2018-07-02T13:57:52.746Z,23.90
2018-07-02T14:00:20.609Z,24.10
2018-07-02T14:05:16.038Z,23.90
2018-07-02T14:07:43.818Z,23.90
2018-07-02T14:10:11.577Z,24.20
2018-07-02T14:12:39.354Z,24.50
2018-07-02T14:15:08.069Z,24.10
2018-07-02T14:17:35.850Z,24.10
2018-07-02T14:20:03.709Z,24.40
2018-07-02T14:22:31.467Z,24.60
2018-07-02T14:24:59.321Z,24.90
2018-07-02T14:27:27.120Z,24.90
2018-07-02T14:29:55.139Z,24.80
2018-07-02T14:32:22.910Z,25.10
2018-07-02T14:34:50.714Z,25.40
2018-07-02T14:39:46.221Z,25.10
2018-07-02T14:42:13.982Z,25.20
2018-07-02T14:44:42.030Z,25.70
2018-07-02T14:49:37.488Z,25.10
2018-07-02T14:52:05.284Z,25.30
2018-07-02T14:54:33.072Z,25.80
2018-07-02T14:57:00.804Z,25.80
2018-07-02T15:04:24.256Z,25.70
2018-07-02T15:06:52.145Z,25.90
2018-07-02T15:11:47.710Z,26.40
2018-07-02T15:14:15.502Z,26.30
2018-07-02T15:16:43.214Z,26.60
2018-07-02T15:21:38.690Z,27.50
2018-07-02T15:24:06.563Z,27.90
2018-07-02T15:26:34.541Z,28.60
2018-07-02T15:29:02.513Z,28.90
2018-07-02T15:33:58.054Z,30.10
2018-07-02T15:36:26.098Z,30.00
2018-07-02T15:38:53.873Z,29.60
2018-07-02T15:41:24.206Z,29.90
2018-07-02T15:46:19.735Z,30.20
2018-07-02T15:48:47.502Z,30.50
2018-07-02T15:53:43.024Z,30.80
2018-07-02T15:56:10.766Z,30.80
2018-07-02T15:58:38.686Z,31.60
2018-07-02T16:01:06.378Z,31.60
2018-07-02T16:03:34.121Z,31.60
2018-07-02T16:06:01.891Z,31.30
2018-07-02T16:08:29.710Z,30.30
2018-07-02T16:10:57.548Z,31.00
2018-07-02T16:13:25.255Z,30.90
2018-07-02T16:18:20.872Z,30.40
2018-07-02T16:20:48.677Z,30.10
2018-07-02T16:23:16.998Z,30.60
2018-07-02T16:25:44.790Z,31.30
2018-07-02T16:33:08.044Z,30.80
2018-07-02T16:35:35.906Z,29.90
2018-07-02T16:38:03.923Z,30.10
2018-07-02T16:40:31.749Z,30.70
2018-07-02T16:42:59.521Z,31.80
2018-07-02T16:45:27.354Z,32.30
2018-07-02T16:47:55.330Z,31.90
2018-07-02T16:50:23.129Z,31.40
2018-07-02T16:52:50.862Z,30.60
2018-07-02T16:55:18.648Z,30.40
2018-07-02T16:57:46.559Z,30.40
2018-07-02T17:00:14.763Z,29.80
2018-07-02T17:07:37.944Z,30.20
2018-07-02T17:10:05.819Z,30.70
2018-07-02T17:12:33.566Z,30.80
2018-07-02T17:15:01.346Z,30.40
2018-07-02T17:17:29.153Z,30.40
2018-07-02T17:22:24.620Z,30.80
2018-07-02T17:24:52.469Z,30.10
2018-07-02T17:27:20.248Z,30.10
2018-07-02T17:29:48.034Z,30.10
2018-07-02T17:32:15.782Z,30.20
2018-07-02T17:34:43.598Z,30.60
2018-07-02T17:37:11.337Z,30.20
2018-07-02T17:39:41.588Z,30.10
2018-07-02T17:44:37.049Z,30.60
2018-07-02T17:47:04.981Z,30.50
2018-07-02T17:52:00.445Z,30.50
2018-07-02T17:54:29.698Z,30.40
2018-07-02T17:56:57.463Z,29.70
2018-07-02T17:59:25.182Z,29.80
2018-07-02T18:01:52.990Z,29.90
2018-07-02T18:04:20.793Z,29.60
2018-07-02T18:06:48.563Z,29.60
2018-07-02T18:09:16.278Z,29.10
2018-07-02T18:14:11.701Z,29.30
2018-07-02T18:19:07.173Z,29.80
2018-07-02T18:21:35.138Z,29.60
2018-07-02T18:24:02.959Z,29.60
2018-07-02T18:31:26.028Z,28.50
2018-07-02T18:33:53.789Z,27.80
2018-07-02T18:36:21.571Z,27.90
2018-07-02T18:38:49.400Z,27.70
2018-07-02T18:41:17.149Z,27.40
2018-07-02T18:43:44.929Z,27.80
2018-07-02T18:46:12.721Z,27.60
2018-07-02T18:48:40.470Z,27.80
2018-07-02T18:51:08.251Z,27.20
2018-07-02T18:56:03.826Z,27.00
2018-07-02T18:58:32.364Z,27.00
2018-07-02T19:01:00.540Z,27.10
2018-07-02T19:03:28.366Z,26.60
2018-07-02T19:05:56.166Z,26.50
2018-07-02T19:08:24.309Z,26.90
2018-07-02T19:10:52.334Z,26.50
2018-07-02T19:13:20.069Z,26.80
2018-07-02T19:18:15.598Z,25.80
2018-07-02T19:20:43.425Z,25.30
2018-07-02T19:23:11.250Z,25.00
2018-07-02T19:25:39.010Z,25.20
2018-07-02T19:28:06.862Z,25.10
2018-07-02T19:30:35.834Z,25.40
2018-07-02T19:33:03.786Z,24.80
2018-07-02T19:35:31.593Z,24.60
2018-07-02T19:40:27.107Z,23.20
2018-07-02T19:45:22.588Z,22.90
2018-07-02T19:47:50.404Z,22.80
2018-07-02T19:52:46.235Z,22.70
2018-07-02T19:55:14.065Z,22.70
2018-07-02T19:57:41.815Z,22.50
2018-07-02T20:00:10.134Z,22.50
2018-07-02T20:02:38.038Z,22.20
2018-07-02T20:07:33.626Z,22.00
2018-07-02T20:10:01.407Z,22.00
2018-07-02T20:14:56.882Z,21.70
2018-07-02T20:17:24.661Z,21.50
2018-07-02T20:19:52.451Z,21.60
2018-07-02T20:22:20.222Z,21.40
2018-07-02T20:27:15.855Z,21.10
2018-07-02T20:29:43.600Z,21.00
2018-07-02T20:32:11.488Z,20.90
2018-07-02T20:37:07.023Z,20.90
2018-07-02T20:39:34.833Z,21.00
2018-07-02T20:42:02.594Z,21.00
2018-07-02T20:44:30.457Z,20.80
2018-07-02T20:46:58.239Z,20.60
2018-07-02T20:49:26.171Z,20.50
2018-07-02T20:54:21.786Z,20.20
2018-07-02T20:59:17.314Z,20.10
2018-07-02T21:01:45.212Z,19.80
2018-07-02T21:04:13.349Z,20.00
2018-07-02T21:06:41.279Z,19.90
2018-07-02T21:09:10.103Z,19.60
2018-07-02T21:14:06.293Z,19.50
2018-07-02T21:16:34.515Z,19.40
2018-07-02T21:19:02.482Z,19.40
2018-07-02T21:23:58.222Z,19.20
2018-07-02T21:28:54.999Z,19.30
2018-07-02T21:31:22.925Z,19.10
2018-07-02T21:33:50.703Z,19.10
2018-07-02T21:36:18.513Z,19.10
2018-07-02T21:38:46.334Z,18.90
2018-07-02T21:41:14.238Z,18.90
2018-07-02T21:43:42.085Z,18.70
2018-07-02T21:48:38.031Z,19.20
2018-07-02T21:53:33.921Z,19.30
2018-07-02T21:56:01.646Z,19.50
2018-07-02T21:58:29.471Z,19.00
2018-07-02T22:00:57.230Z,19.00
2018-07-02T22:05:52.762Z,18.80
2018-07-02T22:10:48.246Z,17.40
2018-07-02T22:13:16.031Z,17.60
2018-07-02T22:15:46.215Z,17.60
2018-07-02T22:18:14.030Z,17.60
2018-07-02T22:20:41.840Z,17.60
2018-07-02T22:23:09.656Z,17.70
2018-07-02T22:28:05.318Z,17.90
2018-07-02T22:30:33.061Z,17.60
2018-07-02T22:33:00.880Z,17.60
2018-07-02T22:35:28.634Z,18.00
2018-07-02T22:37:56.448Z,17.80
2018-07-02T22:40:24.485Z,17.90
2018-07-02T22:42:52.445Z,17.90
2018-07-02T22:45:20.304Z,17.70
2018-07-02T22:47:48.016Z,17.20
2018-07-02T22:55:11.255Z,17.60
2018-07-02T22:57:39.119Z,17.90
2018-07-02T23:00:07.839Z,18.20
2018-07-02T23:05:03.343Z,18.00
2018-07-02T23:07:31.834Z,17.70
2018-07-02T23:09:59.907Z,18.10
2018-07-02T23:12:28.101Z,17.70
2018-07-02T23:14:55.974Z,17.40
2018-07-02T23:17:23.781Z,17.50
2018-07-02T23:19:51.627Z,18.00
2018-07-02T23:22:19.369Z,17.80
2018-07-02T23:24:47.154Z,17.70
2018-07-02T23:27:15.043Z,17.70
2018-07-02T23:29:42.815Z,17.90
2018-07-02T23:32:10.596Z,17.80
2018-07-02T23:34:38.363Z,17.70
2018-07-02T23:37:06.207Z,17.50
2018-07-02T23:39:33.988Z,17.50
2018-07-02T23:42:01.809Z,17.20
2018-07-02T23:44:29.605Z,17.30
2018-07-02T23:46:57.370Z,17.60
2018-07-02T23:49:25.104Z,17.40
2018-07-02T23:54:20.870Z,17.10
2018-07-02T23:56:48.730Z,17.10
2018-07-02T23:59:16.466Z,17.20
